Time;durP1;ratioP1;P1;durP2;ratioP2;P2;SDS_P1;SDS_P2;PMS_P1;PMS_P2;Temp;Humidity;BMP_temperature;BMP_pressure;BME280_temperature;BME280_humidity;BME280_pressure;Samples;Min_cycle;Max_cycle;Signal;HPM_P1;HPM_P2
2022/01/12 00:00:32;;;;;;;46.70;17.70;;;;;;;-4.30;92.05;101858.74;104105;1282;60546;-67
2022/01/12 00:04:18;;;;;;;50.40;22.10;;;;;;;-4.29;92.39;101843.50;104984;1271;73369;-67
2022/01/12 00:07:12;;;;;;;48.20;21.50;;;;;;;-4.27;92.34;101857.40;105350;1271;67097;-67
2022/01/12 00:14:05;;;;;;;42.60;17.40;;;;;;;-4.19;92.28;101849.34;105132;1271;59787;-67
2022/01/12 00:17:29;;;;;;;42.90;17.20;;;;;;;-4.16;92.00;101840.88;105210;1271;59594;-67
2022/01/12 00:21:06;;;;;;;42.20;17.70;;;;;;;-4.16;91.99;101842.27;105416;1271;74564;-66
2022/01/12 00:35:53;;;;;;;51.00;21.20;;;;;;;-4.35;92.25;101839.43;105403;1271;59566;-66
2022/01/12 00:39:56;;;;;;;45.30;21.20;;;;;;;-4.39;92.59;101837.14;105428;1271;70813;-66
2022/01/12 00:44:35;;;;;;;48.30;19.90;;;;;;;-4.38;92.81;101840.09;104330;1279;69410;-66
2022/01/12 00:47:53;;;;;;;45.20;18.20;;;;;;;-4.43;92.56;101833.62;104960;1279;72926;-67
2022/01/12 00:51:14;;;;;;;41.10;17.30;;;;;;;-4.51;92.61;101831.27;104620;1279;59697;-66
2022/01/12 00:54:46;;;;;;;55.20;20.70;;;;;;;-4.61;92.64;101835.81;104628;1280;59613;-66
2022/01/12 00:57:46;;;;;;;50.10;21.30;;;;;;;-4.67;92.61;101835.92;104441;1280;73509;-66
2022/01/12 01:00:40;;;;;;;62.90;25.00;;;;;;;-4.73;92.38;101836.00;104529;1280;68149;-66
2022/01/12 01:03:49;;;;;;;60.80;23.50;;;;;;;-4.79;92.51;101836.78;104399;1281;70746;-66
2022/01/12 01:06:50;;;;;;;54.00;21.60;;;;;;;-4.82;92.67;101839.34;104615;1282;59873;-66
2022/01/12 01:10:17;;;;;;;48.70;19.90;;;;;;;-4.87;92.65;101834.42;104598;1281;59791;-66
2022/01/12 01:13:28;;;;;;;44.10;16.10;;;;;;;-4.92;92.89;101833.65;104498;1281;73646;-67
2022/01/12 01:28:03;;;;;;;49.70;18.90;;;;;;;-5.04;92.80;101823.46;104617;1274;1003352;-67
2022/01/12 01:32:08;;;;;;;47.60;19.50;;;;;;;-5.07;92.76;101826.17;105170;1274;74627;-67
2022/01/12 01:36:31;;;;;;;;;;;;;;;;;;;;;
2022/01/12 01:40:31;;;;;;;40.50;15.70;;;;;;;-5.18;92.51;101819.09;105219;1274;71519;-67
2022/01/12 01:43:42;;;;;;;46.80;18.50;;;;;;;-5.24;92.63;101815.88;104956;1274;59701;-67
2022/01/12 01:53:43;;;;;;;32.80;14.30;;;;;;;-5.26;93.13;101806.50;105112;1274;65773;-67
2022/01/12 01:57:09;;;;;;;31.70;13.40;;;;;;;-5.24;93.48;101801.34;105334;1274;71470;-67
2022/01/12 02:00:19;;;;;;;31.20;11.80;;;;;;;-5.21;93.19;101795.67;105200;1274;59677;-66
2022/01/12 02:04:00;;;;;;;33.70;15.80;;;;;;;-5.17;93.50;101784.14;104641;1272;1002955;-68
2022/01/12 02:07:22;;;;;;;29.30;12.10;;;;;;;-5.12;93.39;101789.75;105525;1271;72136;-67
2022/01/12 02:10:40;;;;;;;30.20;13.00;;;;;;;-5.06;93.57;101798.31;105379;1273;67305;-67
2022/01/12 02:13:54;;;;;;;30.30;14.60;;;;;;;-4.99;92.99;101794.77;104871;1271;1003365;-67
2022/01/12 02:17:31;;;;;;;29.20;11.60;;;;;;;-4.93;93.00;101786.38;104992;1272;59954;-66
2022/01/12 02:36:44;;;;;;;32.20;13.90;;;;;;;-4.64;92.90;101763.19;105233;1273;59698;-67
2022/01/12 02:39:53;;;;;;;28.80;12.70;;;;;;;-4.58;92.81;101759.45;105094;1273;59631;-67
2022/01/12 02:43:28;;;;;;;21.20;8.70;;;;;;;-4.50;92.73;101752.96;105086;1273;73625;-67
2022/01/12 02:50:54;;;;;;;27.90;11.70;;;;;;;-4.42;92.22;101747.69;105143;1273;71754;-67
2022/01/12 02:54:22;;;;;;;25.40;10.40;;;;;;;-4.41;92.25;101744.74;105212;1273;59701;-67
2022/01/12 02:57:40;;;;;;;23.80;9.90;;;;;;;-4.42;92.22;101743.36;104954;1273;59669;-67
2022/01/12 03:01:16;;;;;;;29.80;13.50;;;;;;;-4.40;92.25;101741.80;104768;1276;72162;-67
2022/01/12 03:08:13;;;;;;;28.50;12.70;;;;;;;-4.31;92.48;101734.11;104984;1273;72537;-67
2022/01/12 03:11:32;;;;;;;22.80;10.10;;;;;;;-4.28;92.30;101739.16;105223;1273;59765;-66
2022/01/12 03:15:40;;;;;;;24.10;11.40;;;;;;;-4.25;92.30;101737.45;104936;1279;60338;-66
2022/01/12 03:19:15;;;;;;;29.40;13.20;;;;;;;-4.22;92.68;101741.30;104325;1277;1003247;-66
2022/01/12 03:22:15;;;;;;;28.80;11.90;;;;;;;-4.18;92.29;101750.52;104651;1277;68640;-67
2022/01/12 03:25:09;;;;;;;27.90;13.00;;;;;;;-4.14;92.38;101746.05;104699;1277;71511;-66
2022/01/12 03:28:06;;;;;;;27.70;12.00;;;;;;;-4.11;92.28;101739.68;104767;1277;59710;-66
2022/01/12 03:31:24;;;;;;;24.00;10.10;;;;;;;-4.10;92.27;101736.91;104459;1277;59640;-68
2022/01/12 03:34:32;;;;;;;25.40;11.50;;;;;;;-4.11;92.18;101737.60;103920;1277;1003454;-67
2022/01/12 03:38:31;;;;;;;21.70;11.00;;;;;;;-4.09;92.10;101737.61;104885;1277;67007;-68
2022/01/12 03:41:48;;;;;;;28.90;12.60;;;;;;;-4.08;92.39;101738.84;104851;1271;71748;-67
2022/01/12 03:45:11;;;;;;;22.70;10.50;;;;;;;-4.05;92.53;101734.88;105292;1271;59557;-68
2022/01/12 03:49:44;;;;;;;25.70;10.30;;;;;;;-4.03;92.22;101731.95;104682;1281;59558;-68
2022/01/12 03:53:15;;;;;;;27.80;11.80;;;;;;;-4.01;92.38;101725.04;104539;1281;73527;-68
2022/01/12 03:56:37;;;;;;;28.20;12.20;;;;;;;-3.99;92.26;101721.06;104566;1281;67287;-68
2022/01/12 04:00:16;;;;;;;23.20;9.90;;;;;;;-3.95;92.11;101713.98;104949;1282;72861;-68
2022/01/12 04:11:09;;;;;;;22.10;9.80;;;;;;;-3.82;91.91;101712.02;104671;1282;73672;-68
2022/01/12 04:14:35;;;;;;;21.40;10.10;;;;;;;-3.80;92.19;101711.69;104138;1284;67109;-68
2022/01/12 04:17:51;;;;;;;29.00;12.50;;;;;;;-3.77;91.80;101718.30;104225;1282;72936;-68
2022/01/12 04:25:25;;;;;;;18.10;9.20;;;;;;;-3.64;91.74;101695.31;104867;1274;60405;-69
2022/01/12 04:29:28;;;;;;;24.90;11.80;;;;;;;-3.63;91.42;101698.63;105153;1273;71786;-68
2022/01/12 04:32:49;;;;;;;19.40;9.00;;;;;;;-3.58;91.46;101697.97;104859;1273;68349;-68
2022/01/12 04:35:56;;;;;;;24.30;10.70;;;;;;;-3.56;90.13;101705.27;104994;1273;1003373;-69
2022/01/12 04:39:10;;;;;;;21.00;9.00;;;;;;;-3.54;89.28;101703.73;105213;1273;59573;-68
2022/01/12 04:42:11;;;;;;;21.10;10.30;;;;;;;-3.52;88.62;101705.80;105055;1274;60045;-68
2022/01/12 04:49:52;;;;;;;20.50;9.70;;;;;;;-3.51;87.55;101700.77;106244;1274;67407;-69
2022/01/12 04:53:10;;;;;;;22.90;9.90;;;;;;;-3.49;87.42;101703.73;105288;1274;73254;-68
2022/01/12 04:56:14;;;;;;;23.60;11.00;;;;;;;-3.48;87.03;101698.20;104154;1274;1003189;-67
2022/01/12 05:00:05;;;;;;;20.70;8.30;;;;;;;-3.44;86.22;101693.55;104860;1273;60568;-67
2022/01/12 05:06:53;;;;;;;19.60;8.60;;;;;;;-3.43;85.43;101698.58;105195;1274;68140;-67
2022/01/12 05:13:59;;;;;;;19.80;8.70;;;;;;;-3.40;85.56;101694.27;105181;1271;59751;-68
2022/01/12 05:17:55;;;;;;;24.40;10.40;;;;;;;-3.37;85.23;101696.71;105175;1274;62372;-68
2022/01/12 05:21:24;;;;;;;22.30;9.50;;;;;;;-3.33;84.86;101700.20;105265;1271;74444;-68
2022/01/12 05:24:57;;;;;;;22.00;9.10;;;;;;;-3.31;84.51;101697.79;105091;1274;68542;-67
2022/01/12 05:28:00;;;;;;;23.80;11.10;;;;;;;-3.30;84.18;101688.24;105132;1271;71954;-67
2022/01/12 05:31:11;;;;;;;22.90;9.80;;;;;;;-3.31;84.11;101699.00;104209;1271;1003310;-67
2022/01/12 05:34:24;;;;;;;24.10;9.30;;;;;;;-3.30;83.80;101691.55;104994;1273;59685;-67
2022/01/12 05:37:21;;;;;;;26.20;11.40;;;;;;;-3.31;83.33;101686.85;105047;1274;73395;-67
2022/01/12 05:40:26;;;;;;;26.90;11.40;;;;;;;-3.33;83.39;101680.59;105058;1271;68101;-67
2022/01/12 05:43:28;;;;;;;27.70;11.60;;;;;;;-3.32;83.42;101681.81;104301;1271;1002954;-68
2022/01/12 05:46:30;;;;;;;28.60;11.30;;;;;;;-3.33;83.26;101670.70;105435;1274;59737;-69
2022/01/12 05:49:41;;;;;;;30.80;12.60;;;;;;;-3.36;83.47;101664.42;105469;1274;60942;-68
2022/01/12 05:52:32;;;;;;;26.10;11.30;;;;;;;-3.37;83.53;101663.20;105117;1271;73302;-69
2022/01/12 05:55:43;;;;;;;26.60;10.10;;;;;;;-3.41;83.58;101666.64;105283;1271;68613;-68
2022/01/12 05:59:03;;;;;;;28.40;12.80;;;;;;;-3.45;83.73;101670.45;105470;1271;72969;-70
2022/01/12 06:01:56;;;;;;;26.90;11.50;;;;;;;-3.43;84.07;101664.21;105216;1273;59637;-68
2022/01/12 06:05:29;;;;;;;24.40;10.20;;;;;;;-3.43;83.90;101671.67;105236;1271;60732;-69
2022/01/12 06:08:55;;;;;;;33.00;14.50;;;;;;;-3.47;83.85;101669.56;104254;1271;1003689;-68
2022/01/12 06:12:40;;;;;;;34.70;15.50;;;;;;;-3.50;84.07;101660.70;105132;1273;68480;-69
2022/01/12 06:15:40;;;;;;;37.90;16.50;;;;;;;-3.50;84.21;101660.70;105296;1271;72064;-70
2022/01/12 06:22:15;;;;;;;35.10;14.20;;;;;;;-3.57;83.93;101657.02;104693;1274;684591;-70
2022/01/12 06:25:57;;;;;;;37.60;14.70;;;;;;;-3.61;84.43;101651.44;104863;1277;72375;-69
2022/01/12 06:29:15;;;;;;;36.60;15.60;;;;;;;-3.63;84.45;101649.17;104591;1278;66445;-69
2022/01/12 06:32:58;;;;;;;42.00;16.60;;;;;;;-3.67;84.57;101646.88;104891;1278;72990;-71
2022/01/12 06:36:45;;;;;;;48.70;20.50;;;;;;;-3.71;84.58;101640.79;104767;1277;59784;-69
2022/01/12 06:41:10;;;;;;;37.60;14.60;;;;;;;-3.73;84.67;101631.05;104542;1284;59766;-69
2022/01/12 06:44:31;;;;;;;35.70;15.30;;;;;;;-3.75;84.97;101622.90;104321;1284;72442;-70
2022/01/12 06:51:47;;;;;;;36.30;15.10;;;;;;;-3.78;85.24;101623.40;103505;1290;72015;-69
2022/01/12 06:55:23;;;;;;;47.10;20.80;;;;;;;-3.81;85.23;101605.69;103735;1290;59815;-70
2022/01/12 06:58:44;;;;;;;37.60;16.60;;;;;;;-3.83;85.72;101602.90;103699;1294;59609;-69
2022/01/12 07:02:44;;;;;;;;;;;;;;;;;;;;;
2022/01/12 07:25:52;;;;;;;38.30;15.90;;;;;;;-3.84;86.54;101632.73;103206;1303;71052;-67
2022/01/12 07:29:40;;;;;;;;;;;;;;;;;;;;;
2022/01/12 07:39:16;;;;;;;49.20;19.90;;;;;;;-3.67;86.41;101634.73;102869;1296;59895;-68
2022/01/12 07:42:12;;;;;;;51.90;21.20;;;;;;;-3.62;86.24;101637.20;102639;1293;1002544;-68
2022/01/12 07:45:09;;;;;;;44.70;18.50;;;;;;;-3.57;86.08;101634.45;103288;1293;73532;-68
2022/01/12 07:48:18;;;;;;;54.00;21.30;;;;;;;-3.54;85.70;101632.23;103732;1290;66373;-68
2022/01/12 07:51:22;;;;;;;45.70;18.50;;;;;;;-3.49;85.89;101639.88;104826;1281;71181;-69
2022/01/12 07:54:11;;;;;;;55.90;21.80;;;;;;;-3.43;85.81;101644.07;104952;1281;59659;-67
2022/01/12 07:57:01;;;;;;;51.30;22.20;;;;;;;-3.36;85.57;101638.73;104433;1281;1015886;-69
2022/01/12 07:59:52;;;;;;;52.40;19.90;;;;;;;-3.33;85.59;101634.77;104950;1282;71978;-67
2022/01/12 08:02:41;;;;;;;61.70;22.90;;;;;;;-3.30;85.25;101634.42;105207;1281;66906;-68
2022/01/12 08:05:35;;;;;;;56.50;22.10;;;;;;;-3.26;85.06;101633.40;104684;1281;71963;-68
2022/01/12 08:08:29;;;;;;;52.00;22.20;;;;;;;-3.20;85.07;101633.42;105022;1281;59669;-68
2022/01/12 08:11:56;;;;;;;54.50;21.70;;;;;;;-3.11;84.92;101633.98;104805;1281;59670;-67
2022/01/12 08:16:35;;;;;;;49.90;21.30;;;;;;;-3.00;84.74;101640.98;105758;1273;71776;-69
2022/01/12 08:20:10;;;;;;;44.20;18.80;;;;;;;-2.94;84.52;101646.55;105336;1281;66969;-68
2022/01/12 08:23:07;;;;;;;46.30;19.50;;;;;;;-2.86;84.70;101653.70;105239;1281;72884;-68
2022/01/12 08:26:11;;;;;;;45.90;18.80;;;;;;;-2.85;84.16;101662.38;105349;1281;59771;-68
2022/01/12 08:29:13;;;;;;;49.90;20.70;;;;;;;-2.85;84.15;101668.98;105525;1281;60537;-69
2022/01/12 08:32:54;;;;;;;50.70;21.70;;;;;;;-2.83;84.08;101665.69;105161;1281;74631;-68
2022/01/12 08:36:04;;;;;;;51.00;21.40;;;;;;;-2.80;84.18;101661.00;105152;1281;67067;-68
2022/01/12 08:39:08;;;;;;;50.00;21.30;;;;;;;-2.79;84.05;101657.72;104970;1281;71598;-69
2022/01/12 08:42:00;;;;;;;45.90;20.50;;;;;;;-2.75;83.72;101651.81;104937;1281;59518;-69
2022/01/12 08:45:01;;;;;;;46.90;20.10;;;;;;;-2.76;83.62;101648.86;105290;1282;60734;-68
2022/01/12 08:48:15;;;;;;;47.80;19.80;;;;;;;-2.75;84.15;101647.83;104829;1284;73338;-68
2022/01/12 08:51:13;;;;;;;50.00;20.80;;;;;;;-2.74;83.87;101664.15;104171;1284;67936;-68
2022/01/12 08:54:41;;;;;;;54.10;20.60;;;;;;;-2.69;84.35;101658.79;104713;1282;72096;-68
2022/01/12 08:57:59;;;;;;;53.60;21.70;;;;;;;-2.63;84.44;101652.53;105221;1274;61252;-69
2022/01/12 09:01:00;;;;;;;56.40;23.50;;;;;;;-2.61;83.92;101648.36;105455;1274;59656;-69
2022/01/12 09:03:52;;;;;;;39.50;14.70;;;;;;;-2.61;83.96;101651.84;105266;1273;73259;-68
2022/01/12 09:06:40;;;;;;;47.50;19.50;;;;;;;-2.57;84.71;101652.90;105254;1274;68010;-68
2022/01/12 09:09:27;;;;;;;48.90;21.60;;;;;;;-2.53;84.19;101648.91;105427;1273;71389;-68
2022/01/12 09:12:16;;;;;;;47.20;21.70;;;;;;;-2.49;84.27;101643.36;105438;1273;59759;-68
2022/01/12 09:15:22;;;;;;;;;;;;;;;;;;;;;
2022/01/12 09:18:57;;;;;;;50.10;21.60;;;;;;;-2.42;83.80;101655.88;105307;1274;73179;-68
2022/01/12 09:22:18;;;;;;;51.30;18.90;;;;;;;-2.37;83.71;101652.77;105419;1273;66814;-68
2022/01/12 09:25:46;;;;;;;53.40;22.50;;;;;;;-2.30;83.47;101641.82;105060;1273;71661;-69
2022/01/12 09:28:42;;;;;;;43.40;18.20;;;;;;;-2.25;83.51;101633.29;105108;1273;59650;-68
2022/01/12 09:31:44;;;;;;;45.20;19.30;;;;;;;-2.23;83.01;101619.55;105555;1273;59553;-68
2022/01/12 09:34:32;;;;;;;45.10;19.60;;;;;;;-2.19;83.07;101619.55;105287;1273;73263;-68
2022/01/12 09:37:21;;;;;;;54.10;23.10;;;;;;;-2.17;82.71;101616.60;105202;1273;66516;-69
2022/01/12 09:40:14;;;;;;;55.00;22.70;;;;;;;-2.16;82.69;101607.73;105295;1273;72054;-69
2022/01/12 09:43:05;;;;;;;50.80;21.70;;;;;;;-2.09;82.89;101605.64;105150;1274;59704;-67
2022/01/12 09:46:12;;;;;;;54.70;22.80;;;;;;;-2.01;82.49;101604.77;105146;1273;59685;-68
2022/01/12 09:49:06;;;;;;;50.60;20.30;;;;;;;-1.94;82.31;101600.05;105167;1273;73294;-68
2022/01/12 09:51:55;;;;;;;49.20;21.70;;;;;;;-1.89;82.21;101601.96;104915;1273;68016;-68
2022/01/12 09:54:43;;;;;;;50.30;20.60;;;;;;;-1.84;82.13;101591.86;104755;1273;73332;-68
2022/01/12 09:57:35;;;;;;;54.60;22.20;;;;;;;-1.82;82.03;101573.77;105287;1273;59720;-69
2022/01/12 10:00:56;;;;;;;46.70;19.40;;;;;;;-1.80;82.04;101563.50;105327;1273;61119;-69
2022/01/12 10:03:48;;;;;;;55.70;23.00;;;;;;;-1.77;82.25;101558.95;105529;1273;73504;-68
2022/01/12 10:06:45;;;;;;;56.20;24.20;;;;;;;-1.66;82.45;101558.23;105163;1274;67136;-68
2022/01/12 10:09:44;;;;;;;54.60;23.50;;;;;;;-1.55;82.07;101553.31;105380;1273;71956;-69
2022/01/12 10:12:34;;;;;;;52.60;21.70;;;;;;;-1.44;81.68;101554.14;105071;1273;59812;-69
2022/01/12 10:15:24;;;;;;;44.80;19.60;;;;;;;-1.32;81.61;101542.77;104013;1273;1003107;-69
2022/01/12 10:18:13;;;;;;;54.20;22.60;;;;;;;-1.16;81.39;101544.60;104930;1273;73494;-68
2022/01/12 10:21:05;;;;;;;55.40;23.10;;;;;;;-0.98;81.07;101541.02;105012;1273;67130;-68
2022/01/12 10:24:11;;;;;;;56.10;23.60;;;;;;;-0.89;80.79;101544.27;105027;1273;71817;-68
2022/01/12 10:26:59;;;;;;;55.10;22.00;;;;;;;-0.77;80.98;101535.64;104661;1273;59761;-69
2022/01/12 10:29:57;;;;;;;54.40;24.60;;;;;;;-0.52;80.59;101529.86;104975;1273;59650;-67
2022/01/12 10:32:58;;;;;;;49.50;21.90;;;;;;;-0.04;79.95;101525.06;105388;1273;73249;-68
2022/01/12 10:35:54;;;;;;;46.90;20.30;;;;;;;0.87;76.46;101519.76;105037;1273;66873;-69
2022/01/12 10:39:12;;;;;;;57.50;24.00;;;;;;;0.89;75.53;101522.86;105051;1274;71648;-69
2022/01/12 10:42:10;;;;;;;47.90;21.40;;;;;;;0.68;76.26;101514.42;105174;1274;59769;-69
2022/01/12 10:45:02;;;;;;;46.20;20.50;;;;;;;0.52;76.06;101510.80;105161;1274;61162;-71
2022/01/12 10:48:19;;;;;;;47.70;21.10;;;;;;;0.38;76.32;101512.56;105049;1271;73934;-68
2022/01/12 10:51:13;;;;;;;50.20;20.00;;;;;;;0.17;76.73;101516.98;105224;1271;67216;-69
2022/01/12 10:54:08;;;;;;;54.80;22.40;;;;;;;0.02;77.17;101514.89;105464;1274;72952;-69
2022/01/12 10:57:16;;;;;;;56.30;23.20;;;;;;;-0.07;77.66;101503.27;104443;1271;1003898;-70
2022/01/12 11:00:23;;;;;;;47.50;20.50;;;;;;;-0.13;77.74;101503.00;105376;1271;59520;-68
2022/01/12 11:03:19;;;;;;;57.60;25.20;;;;;;;-0.27;77.80;101503.32;105312;1271;73386;-68
2022/01/12 11:06:17;;;;;;;54.70;26.40;;;;;;;-0.35;78.03;101502.35;105048;1273;66820;-70
2022/01/12 11:09:08;;;;;;;55.00;23.70;;;;;;;-0.46;78.06;101500.17;104174;1273;1003300;-68
2022/01/12 11:11:57;;;;;;;56.30;24.20;;;;;;;-0.54;78.28;101492.75;105135;1271;59728;-68
2022/01/12 11:14:53;;;;;;;56.20;23.40;;;;;;;-0.56;78.56;101488.57;104336;1271;1003366;-68
2022/01/12 11:17:45;;;;;;;58.30;24.10;;;;;;;-0.57;78.51;101486.67;105185;1271;72590;-68
2022/01/12 11:20:41;;;;;;;64.70;27.80;;;;;;;-0.39;78.28;101478.13;104872;1273;66421;-69
2022/01/12 11:23:45;;;;;;;52.50;24.90;;;;;;;-0.28;78.07;101482.21;105027;1271;73582;-69
2022/01/12 11:26:57;;;;;;;63.30;26.10;;;;;;;-0.34;77.53;101472.52;105105;1271;59825;-68
2022/01/12 11:30:24;;;;;;;54.20;23.50;;;;;;;-0.39;78.37;101475.34;105841;1271;59787;-69
2022/01/12 11:33:33;;;;;;;51.80;23.70;;;;;;;0.86;76.22;101479.91;105307;1271;74116;-69
2022/01/12 11:36:41;;;;;;;58.80;26.70;;;;;;;2.62;71.50;101465.65;105572;1271;68128;-68
2022/01/12 11:39:34;;;;;;;55.40;26.60;;;;;;;4.03;67.15;101466.52;105723;1271;73090;-70
2022/01/12 11:42:54;;;;;;;55.30;27.20;;;;;;;5.06;63.11;101468.17;105408;1271;59803;-70
2022/01/12 11:46:45;;;;;;;59.90;28.80;;;;;;;5.96;59.61;101471.14;105176;1271;59638;-70
2022/01/12 11:50:48;;;;;;;54.80;27.90;;;;;;;6.39;56.95;101472.05;104989;1284;73374;-69
2022/01/12 11:59:54;;;;;;;53.70;26.90;;;;;;;5.94;55.34;101479.33;103509;1290;72884;-69
2022/01/12 12:03:29;;;;;;;47.20;24.90;;;;;;;4.68;58.28;101493.29;103743;1290;59834;-69
2022/01/12 12:06:25;;;;;;;55.00;25.80;;;;;;;3.94;60.45;101500.15;104056;1290;60287;-68
2022/01/12 12:10:08;;;;;;;52.80;25.70;;;;;;;3.24;62.34;101499.47;103703;1291;72330;-69
2022/01/12 12:13:16;;;;;;;;;;;;;;;;;;;;;
2022/01/12 12:16:39;;;;;;;50.80;23.70;;;;;;;2.11;67.16;101508.59;103221;1291;72916;-69
2022/01/12 12:19:37;;;;;;;53.70;24.20;;;;;;;1.77;69.04;101499.59;103868;1290;59718;-70
2022/01/12 12:27:11;;;;;;;47.00;20.90;;;;;;;0.94;73.67;101501.83;104678;1280;72766;-69
2022/01/12 12:30:19;;;;;;;51.40;21.70;;;;;;;0.65;75.32;101500.32;104237;1279;1003798;-69
2022/01/12 12:33:15;;;;;;;53.30;22.60;;;;;;;0.43;76.41;101503.23;105074;1271;73156;-68
2022/01/12 12:36:15;;;;;;;46.00;18.90;;;;;;;0.31;77.56;101494.99;105148;1271;59639;-69
2022/01/12 12:39:14;;;;;;;48.30;21.50;;;;;;;0.20;78.77;101503.34;105455;1273;59668;-68
2022/01/12 12:42:52;;;;;;;42.60;17.90;;;;;;;0.12;79.22;101504.48;104940;1273;1002619;-71
2022/01/12 12:46:28;;;;;;;42.40;18.70;;;;;;;0.04;80.37;101509.97;105192;1273;69629;-69
2022/01/12 12:50:03;;;;;;;41.30;17.30;;;;;;;-0.03;80.80;101506.04;105383;1271;72922;-69
2022/01/12 12:52:56;;;;;;;45.50;19.10;;;;;;;-0.14;82.02;101502.64;105315;1271;59788;-70
2022/01/12 12:56:15;;;;;;;48.50;20.10;;;;;;;-0.24;82.77;101503.45;105181;1271;61286;-68
2022/01/12 12:59:37;;;;;;;50.40;21.60;;;;;;;-0.27;83.25;101502.45;105625;1272;72715;-68
2022/01/12 13:02:44;;;;;;;40.20;16.50;;;;;;;-0.32;83.81;101502.32;105381;1272;68298;-68
2022/01/12 13:05:55;;;;;;;44.70;18.00;;;;;;;-0.38;84.76;101508.30;105592;1271;71643;-69
2022/01/12 13:09:13;;;;;;;46.00;17.50;;;;;;;-0.42;85.32;101512.17;104975;1271;59573;-68
2022/01/12 13:12:10;;;;;;;46.00;19.30;;;;;;;-0.46;85.92;101505.58;105481;1271;60460;-68
2022/01/12 13:16:31;;;;;;;43.80;17.80;;;;;;;-0.52;86.84;101498.33;104751;1273;1003318;-70
2022/01/12 13:23:02;;;;;;;49.30;20.00;;;;;;;-0.52;87.38;101491.17;105284;1272;72781;-68
2022/01/12 13:26:06;;;;;;;45.10;17.90;;;;;;;-0.49;87.79;101489.39;105358;1271;59818;-69
2022/01/12 13:29:19;;;;;;;51.30;20.00;;;;;;;-0.50;88.36;101479.46;105463;1273;60269;-68
2022/01/12 13:32:22;;;;;;;45.80;17.20;;;;;;;-0.50;89.02;101474.75;105171;1271;72015;-67
2022/01/12 13:35:36;;;;;;;43.50;16.60;;;;;;;-0.50;89.28;101477.89;105577;1271;68152;-68
2022/01/12 13:39:24;;;;;;;;;;;;;;;;;;;;;
2022/01/12 13:43:25;;;;;;;44.20;16.90;;;;;;;-0.61;90.76;101463.00;105459;1273;59652;-68
2022/01/12 13:46:39;;;;;;;52.10;19.50;;;;;;;-0.66;91.23;101459.73;105287;1274;59630;-70
2022/01/12 13:50:36;;;;;;;49.10;18.10;;;;;;;-0.70;91.99;101448.43;105601;1274;73082;-69
2022/01/12 13:53:43;;;;;;;44.70;18.60;;;;;;;-0.74;92.92;101443.95;105297;1271;66746;-69
2022/01/12 13:56:55;;;;;;;41.60;15.90;;;;;;;-0.73;92.98;101441.85;105252;1271;72183;-69
2022/01/12 13:59:53;;;;;;;32.30;12.30;;;;;;;-0.73;93.29;101443.58;105486;1271;59966;-68
2022/01/12 14:02:58;;;;;;;46.00;18.10;;;;;;;-0.72;93.50;101437.99;105113;1274;59736;-69
2022/01/12 14:05:59;;;;;;;48.10;18.00;;;;;;;-0.75;94.14;101432.96;105149;1271;73872;-70
2022/01/12 14:08:53;;;;;;;52.90;19.70;;;;;;;-0.77;94.15;101438.73;105363;1271;66845;-67
2022/01/12 14:11:51;;;;;;;52.50;20.40;;;;;;;-0.77;94.24;101431.41;104996;1274;71701;-68
2022/01/12 14:14:57;;;;;;;48.40;19.60;;;;;;;-0.74;94.46;101436.44;104757;1274;59935;-69
2022/01/12 14:17:48;;;;;;;50.70;18.40;;;;;;;-0.71;95.08;101429.96;105134;1274;59688;-70
2022/01/12 14:20:38;;;;;;;52.90;20.10;;;;;;;-0.71;95.25;101431.19;104903;1274;73241;-71
2022/01/12 14:23:37;;;;;;;48.20;18.50;;;;;;;-0.69;95.44;101425.77;105326;1274;66274;-69
2022/01/12 14:26:34;;;;;;;35.50;14.70;;;;;;;-0.67;95.20;101423.30;104946;1274;72784;-69
2022/01/12 14:29:24;;;;;;;38.00;15.60;;;;;;;-0.65;95.43;101421.55;104698;1275;59666;-68
2022/01/12 14:32:13;;;;;;;47.50;18.00;;;;;;;-0.65;95.36;101416.15;105089;1274;60603;-70
2022/01/12 14:35:45;;;;;;;42.70;18.10;;;;;;;-0.66;95.58;101404.30;104965;1274;74518;-71
2022/01/12 14:39:08;;;;;;;43.90;17.10;;;;;;;-0.66;95.75;101401.52;105155;1274;67051;-70
2022/01/12 14:43:01;;;;;;;48.40;18.40;;;;;;;-0.66;95.59;101396.10;105650;1274;71852;-71
2022/01/12 14:46:30;;;;;;;43.30;15.90;;;;;;;-0.66;95.85;101401.50;105379;1274;59679;-70
2022/01/12 14:49:29;;;;;;;37.60;15.80;;;;;;;-0.66;95.98;101397.67;105088;1273;60554;-70
2022/01/12 14:52:26;;;;;;;43.40;16.20;;;;;;;-0.67;95.94;101398.20;105251;1271;73268;-71
2022/01/12 14:55:30;;;;;;;44.30;15.90;;;;;;;-0.66;96.12;101398.55;105810;1272;68155;-69
2022/01/12 14:58:29;;;;;;;38.20;15.60;;;;;;;-0.66;96.03;101392.27;105441;1271;73160;-70
2022/01/12 15:01:18;;;;;;;42.40;14.70;;;;;;;-0.65;96.37;101395.40;105133;1271;59772;-70
2022/01/12 15:04:31;;;;;;;42.70;15.70;;;;;;;-0.65;96.24;101398.02;105007;1277;1002202;-70
2022/01/12 15:08:16;;;;;;;42.60;15.70;;;;;;;-0.65;96.45;101397.66;105127;1273;73798;-71
2022/01/12 15:11:27;;;;;;;37.70;14.20;;;;;;;-0.64;96.99;101406.72;105240;1273;68179;-69
2022/01/12 15:17:45;;;;;;;33.70;13.20;;;;;;;-0.62;96.70;101401.11;104475;1274;1003438;-69
2022/01/12 15:20:39;;;;;;;41.20;16.10;;;;;;;-0.65;96.82;101404.27;105136;1273;59652;-70
2022/01/12 15:23:48;;;;;;;42.20;16.20;;;;;;;-0.65;97.22;101410.39;105165;1271;71936;-68
2022/01/12 15:26:39;;;;;;;43.60;16.90;;;;;;;-0.66;97.63;101412.84;105520;1273;67161;-69
2022/01/12 15:29:31;;;;;;;45.30;18.40;;;;;;;-0.69;97.28;101414.09;104315;1274;1003163;-68
2022/01/12 15:32:28;;;;;;;44.10;16.20;;;;;;;-0.71;97.37;101415.50;105273;1272;59666;-68
2022/01/12 15:35:26;;;;;;;43.60;16.50;;;;;;;-0.72;97.58;101413.77;105077;1273;60439;-69
2022/01/12 15:38:22;;;;;;;40.00;16.30;;;;;;;-0.73;98.10;101415.00;104941;1273;72246;-68
2022/01/12 15:41:54;;;;;;;44.70;17.40;;;;;;;-0.72;98.28;101416.72;105173;1273;66702;-69
2022/01/12 15:44:54;;;;;;;41.40;17.40;;;;;;;-0.72;98.06;101421.26;104865;1277;73205;-69
2022/01/12 15:48:07;;;;;;;43.50;16.90;;;;;;;-0.71;98.36;101420.21;104435;1276;60192;-68
2022/01/12 15:51:08;;;;;;;46.40;18.00;;;;;;;-0.68;98.21;101415.98;104800;1275;59577;-68
2022/01/12 15:54:30;;;;;;;42.70;15.90;;;;;;;-0.66;98.35;101407.77;104844;1276;72125;-70
2022/01/12 16:02:16;;;;;;;39.30;15.50;;;;;;;-0.63;98.90;101399.20;105163;1277;70741;-69
2022/01/12 16:05:12;;;;;;;36.00;13.40;;;;;;;-0.61;98.64;101399.19;105181;1276;59842;-68
2022/01/12 16:08:01;;;;;;;34.50;12.90;;;;;;;-0.61;99.35;101397.96;105111;1276;59627;-70
2022/01/12 16:11:10;;;;;;;41.10;15.90;;;;;;;-0.56;99.52;101390.60;104538;1277;73314;-69
2022/01/12 16:14:02;;;;;;;38.80;14.70;;;;;;;-0.51;99.60;101391.42;104941;1276;68141;-69
2022/01/12 16:22:16;;;;;;;41.30;15.50;;;;;;;-0.38;99.35;101385.34;105002;1274;60361;-70
2022/01/12 16:25:46;;;;;;;34.70;13.80;;;;;;;-0.30;99.32;101380.03;105821;1271;60648;-68
2022/01/12 16:28:48;;;;;;;31.80;12.00;;;;;;;-0.26;99.09;101372.65;105108;1273;71446;-68
2022/01/12 16:31:49;;;;;;;37.50;14.20;;;;;;;-0.22;99.06;101371.02;105177;1272;67079;-69
2022/01/12 16:34:38;;;;;;;42.00;16.00;;;;;;;-0.19;99.05;101383.55;105117;1273;72135;-69
2022/01/12 16:37:28;;;;;;;39.60;14.40;;;;;;;-0.15;99.03;101384.19;105113;1271;59742;-68
2022/01/12 16:40:17;;;;;;;40.70;15.10;;;;;;;-0.12;98.97;101375.97;104911;1272;60771;-68
2022/01/12 16:43:22;;;;;;;32.60;12.00;;;;;;;-0.08;98.89;101382.20;104826;1272;75068;-68
2022/01/12 16:46:13;;;;;;;38.00;13.80;;;;;;;-0.06;99.02;101379.39;105211;1273;67045;-68
2022/01/12 16:49:09;;;;;;;30.90;12.80;;;;;;;-0.05;98.89;101374.50;104860;1271;73259;-69
2022/01/12 16:52:04;;;;;;;35.30;14.60;;;;;;;-0.05;98.98;101363.48;105122;1274;60091;-69
2022/01/12 16:54:56;;;;;;;40.20;16.00;;;;;;;-0.01;98.83;101369.02;105038;1271;59644;-69
2022/01/12 16:57:50;;;;;;;40.60;15.30;;;;;;;0.02;98.95;101367.24;104834;1271;73390;-68